createdAt,value
2018-09-18T00:00:22.635Z,0
2018-09-18T00:05:23.323Z,0
2018-09-18T00:10:23.876Z,0
2018-09-18T00:15:22.587Z,0
2018-09-18T00:20:24.347Z,0
2018-09-18T00:25:24.205Z,0
2018-09-18T00:30:23.243Z,0
2018-09-18T00:35:22.434Z,0
2018-09-18T00:40:22.593Z,0
2018-09-18T00:45:22.488Z,0
2018-09-18T00:50:22.888Z,0
2018-09-18T00:55:22.209Z,0
2018-09-18T01:00:22.475Z,0
2018-09-18T01:05:23.349Z,0
2018-09-18T01:10:23.145Z,0
2018-09-18T01:15:22.840Z,0
2018-09-18T01:20:23.902Z,0
2018-09-18T01:25:23.100Z,0
2018-09-18T01:30:22.615Z,0
2018-09-18T01:35:22.980Z,0
2018-09-18T01:40:22.497Z,0
2018-09-18T01:45:22.748Z,0
2018-09-18T01:50:22.811Z,0
2018-09-18T01:55:23.746Z,0
2018-09-18T02:00:22.849Z,0
2018-09-18T02:05:27.879Z,0
2018-09-18T02:10:24.914Z,0
2018-09-18T02:15:22.973Z,0
2018-09-18T02:20:23.258Z,0
2018-09-18T02:25:24.002Z,0
2018-09-18T02:30:22.599Z,0
2018-09-18T02:35:23.583Z,0
2018-09-18T02:40:24.384Z,0
2018-09-18T02:45:22.720Z,0
2018-09-18T02:50:22.580Z,0
2018-09-18T02:55:22.615Z,0
2018-09-18T03:00:23.456Z,0
2018-09-18T03:05:26.961Z,0
2018-09-18T03:10:23.443Z,0
2018-09-18T03:15:23.563Z,0
2018-09-18T03:20:24.817Z,0
2018-09-18T03:25:22.222Z,0
2018-09-18T03:30:22.613Z,0
2018-09-18T03:35:22.198Z,0
2018-09-18T03:40:22.252Z,0
2018-09-18T03:45:22.685Z,0
2018-09-18T03:50:22.928Z,0
2018-09-18T03:55:24.002Z,0
2018-09-18T04:00:25.177Z,0
2018-09-18T04:05:23.454Z,0
2018-09-18T04:10:34.414Z,0
2018-09-18T04:15:22.563Z,0
2018-09-18T04:20:23.602Z,0
2018-09-18T04:25:22.332Z,0
2018-09-18T04:30:22.577Z,0
2018-09-18T04:35:22.546Z,0
2018-09-18T04:40:23.945Z,0
2018-09-18T04:45:22.218Z,0
2018-09-18T04:50:22.545Z,0
2018-09-18T04:55:22.984Z,0
2018-09-18T05:00:22.367Z,0
2018-09-18T05:05:28.108Z,0
2018-09-18T05:10:24.667Z,0
2018-09-18T05:15:23.164Z,0.8
2018-09-18T05:20:25.623Z,1.7
2018-09-18T05:25:22.347Z,3.3
2018-09-18T05:30:22.365Z,5.8
2018-09-18T05:35:22.128Z,7.5
2018-09-18T05:40:22.386Z,10
2018-09-18T05:45:22.169Z,11.7
2018-09-18T05:50:22.621Z,14.2
2018-09-18T05:55:22.231Z,16.7
2018-09-18T06:00:22.153Z,19.2
2018-09-18T06:05:22.207Z,20.8
2018-09-18T06:10:23.653Z,22.5
2018-09-18T06:15:22.056Z,25
2018-09-18T06:20:22.410Z,26.7
2018-09-18T06:25:22.104Z,29.2
2018-09-18T06:30:21.865Z,31.7
2018-09-18T06:35:22.040Z,35
2018-09-18T06:40:24.944Z,38.3
2018-09-18T06:45:22.047Z,43.3
2018-09-18T06:50:22.147Z,98.3
2018-09-18T06:55:22.297Z,110
2018-09-18T07:00:22.007Z,51.7
2018-09-18T07:05:22.105Z,53.3
2018-09-18T07:10:22.189Z,55.8
2018-09-18T07:15:22.089Z,59.2
2018-09-18T07:20:22.085Z,61.7
2018-09-18T07:25:21.911Z,63.3
2018-09-18T07:30:21.951Z,65
2018-09-18T07:35:21.812Z,66.7
2018-09-18T07:40:21.758Z,64.2
2018-09-18T07:45:22.551Z,65.8
2018-09-18T07:50:21.725Z,67.5
2018-09-18T07:55:21.968Z,69.2
2018-09-18T08:00:22.026Z,69.2
2018-09-18T08:05:22.337Z,70
2018-09-18T08:10:22.109Z,71.7
2018-09-18T08:15:21.921Z,71.7
2018-09-18T08:20:21.699Z,72.5
2018-09-18T08:25:22.225Z,73.3
2018-09-18T08:30:22.000Z,74.2
2018-09-18T08:35:21.679Z,75
2018-09-18T08:40:21.793Z,74.2
2018-09-18T08:45:21.970Z,75.8
2018-09-18T08:50:24.972Z,76.7
2018-09-18T08:55:21.986Z,78.3
2018-09-18T09:00:22.004Z,80
2018-09-18T09:05:21.793Z,79.2
2018-09-18T09:10:21.814Z,80.8
2018-09-18T09:15:22.098Z,88.3
2018-09-18T09:20:21.921Z,102.5
2018-09-18T09:25:21.836Z,129.2
2018-09-18T09:30:21.639Z,124.2
2018-09-18T09:35:21.967Z,99.2
2018-09-18T09:40:21.996Z,114.2
2018-09-18T09:45:22.179Z,113.3
2018-09-18T09:50:21.785Z,117.5
2018-09-18T09:55:22.582Z,112.5
2018-09-18T10:00:21.923Z,115.8
2018-09-18T10:05:21.822Z,118.3
2018-09-18T10:10:22.127Z,125
2018-09-18T10:15:21.472Z,122.5
2018-09-18T10:20:22.077Z,106.7
2018-09-18T10:25:23.263Z,102.5
2018-09-18T10:30:21.783Z,102.5
2018-09-18T10:35:21.768Z,111.7
2018-09-18T10:40:22.191Z,72.5
2018-09-18T10:45:21.645Z,119.2
2018-09-18T10:50:21.856Z,71.7
2018-09-18T10:55:22.197Z,86.7
2018-09-18T11:00:21.380Z,151.7
2018-09-18T11:05:21.765Z,175.8
2018-09-18T11:10:21.969Z,142.5
2018-09-18T11:15:21.504Z,111.7
2018-09-18T11:20:21.593Z,182.5
2018-09-18T11:25:21.880Z,165.8
2018-09-18T11:30:21.770Z,173.3
2018-09-18T11:35:21.545Z,184.2
2018-09-18T11:40:21.503Z,186.7
2018-09-18T11:45:21.744Z,192.5
2018-09-18T11:50:21.446Z,210.8
2018-09-18T11:55:21.707Z,200
2018-09-18T12:00:21.591Z,213.3
2018-09-18T12:05:21.328Z,217.5
2018-09-18T12:10:22.126Z,246.7
2018-09-18T12:15:22.138Z,270.8
2018-09-18T12:20:21.656Z,290
2018-09-18T12:25:21.952Z,303.3
2018-09-18T12:30:21.462Z,334.2
2018-09-18T12:35:21.893Z,359.2
2018-09-18T12:40:21.456Z,375.8
2018-09-18T12:45:22.224Z,395.8
2018-09-18T12:50:22.163Z,417.5
2018-09-18T12:55:21.388Z,454.2
2018-09-18T13:00:21.485Z,467.5
2018-09-18T13:05:21.576Z,435
2018-09-18T13:10:22.447Z,459.2
2018-09-18T13:15:22.050Z,377.5
2018-09-18T13:20:21.754Z,387.5
2018-09-18T13:25:21.265Z,406.7
2018-09-18T13:30:21.463Z,424.2
2018-09-18T13:35:21.311Z,426.7
2018-09-18T13:40:21.328Z,431.7
2018-09-18T13:45:21.371Z,500.8
2018-09-18T13:50:21.572Z,460.8
2018-09-18T13:55:21.728Z,452.5
2018-09-18T14:00:21.431Z,449.2
2018-09-18T14:05:21.957Z,520
2018-09-18T14:10:22.578Z,536.7
2018-09-18T14:15:21.906Z,531.7
2018-09-18T14:20:21.591Z,520.8
2018-09-18T14:25:21.453Z,328.3
2018-09-18T14:30:21.311Z,102.5
2018-09-18T14:35:21.464Z,110
2018-09-18T14:40:21.507Z,119.2
2018-09-18T14:45:21.381Z,178.3
2018-09-18T14:50:21.420Z,480.8
2018-09-18T14:55:21.314Z,547.5
2018-09-18T15:00:43.136Z,469.2
2018-09-18T15:05:21.679Z,573.3
2018-09-18T15:10:21.565Z,521.7
2018-09-18T15:15:21.501Z,524.2
2018-09-18T15:20:21.462Z,511.7
2018-09-18T15:25:21.382Z,490.8
2018-09-18T15:30:24.544Z,423.3
2018-09-18T15:35:21.476Z,170.8
2018-09-18T15:40:21.168Z,152.5
2018-09-18T15:45:21.251Z,411.7
2018-09-18T15:50:21.376Z,275
2018-09-18T15:55:22.160Z,343.3
2018-09-18T16:00:21.802Z,91.7
2018-09-18T16:05:21.501Z,64.2
2018-09-18T16:10:21.286Z,63.3
2018-09-18T16:15:21.432Z,55.8
2018-09-18T16:20:21.668Z,53.3
2018-09-18T16:25:21.282Z,50.8
2018-09-18T16:30:21.667Z,60
2018-09-18T16:35:21.491Z,49.2
2018-09-18T16:40:21.711Z,42.5
2018-09-18T16:45:21.532Z,40
2018-09-18T16:50:21.417Z,36.7
2018-09-18T16:55:21.491Z,34.2
2018-09-18T17:00:21.279Z,31.7
2018-09-18T17:05:21.421Z,27.5
2018-09-18T17:10:26.044Z,23.3
2018-09-18T17:15:21.317Z,18.3
2018-09-18T17:20:21.924Z,15
2018-09-18T17:25:21.508Z,10.8
2018-09-18T17:30:22.458Z,7.5
2018-09-18T17:35:29.586Z,5.8
2018-09-18T17:40:27.177Z,4.2
2018-09-18T17:45:21.439Z,2.5
2018-09-18T17:50:25.575Z,1.7
2018-09-18T17:55:21.278Z,0.8
2018-09-18T18:00:20.918Z,0
2018-09-18T18:05:21.213Z,0
2018-09-18T18:10:21.748Z,0
2018-09-18T18:15:21.470Z,0
2018-09-18T18:20:21.514Z,0
2018-09-18T18:25:21.779Z,0
2018-09-18T18:30:21.724Z,0
2018-09-18T18:35:20.863Z,0
2018-09-18T18:40:22.896Z,0
2018-09-18T18:45:20.898Z,0
2018-09-18T18:50:20.814Z,0
2018-09-18T18:55:20.887Z,0
2018-09-18T19:00:22.047Z,0
2018-09-18T19:05:20.814Z,0
2018-09-18T19:10:20.901Z,0
2018-09-18T19:15:20.907Z,0
2018-09-18T19:20:20.876Z,0
2018-09-18T19:25:20.822Z,0
2018-09-18T19:30:20.706Z,0
2018-09-18T19:35:20.924Z,0
2018-09-18T19:40:20.654Z,0
2018-09-18T19:45:20.565Z,0
2018-09-18T19:50:20.877Z,0
2018-09-18T19:55:20.603Z,0
2018-09-18T20:00:20.717Z,0
2018-09-18T20:05:20.724Z,0
2018-09-18T20:10:20.613Z,0
2018-09-18T20:15:20.660Z,0
2018-09-18T20:20:20.666Z,0
2018-09-18T20:25:20.618Z,0
2018-09-18T20:30:20.680Z,0
2018-09-18T20:35:20.790Z,0
2018-09-18T20:40:20.650Z,0
2018-09-18T20:45:20.604Z,0
2018-09-18T20:50:20.674Z,0
2018-09-18T20:55:20.693Z,0
2018-09-18T21:00:20.726Z,0
2018-09-18T21:05:20.507Z,0
2018-09-18T21:10:20.512Z,0
2018-09-18T21:15:20.784Z,0
2018-09-18T21:20:20.749Z,0
2018-09-18T21:25:20.807Z,0
2018-09-18T21:30:20.756Z,0
2018-09-18T21:35:20.725Z,0
2018-09-18T21:40:20.722Z,0
2018-09-18T21:45:20.671Z,0
2018-09-18T21:50:20.762Z,0
2018-09-18T21:55:20.702Z,0
2018-09-18T22:00:20.661Z,0
2018-09-18T22:05:20.753Z,0
2018-09-18T22:10:20.513Z,0
2018-09-18T22:15:20.871Z,0
2018-09-18T22:20:20.391Z,0
2018-09-18T22:25:20.359Z,0
2018-09-18T22:30:20.641Z,0
2018-09-18T22:35:20.565Z,0
2018-09-18T22:40:20.425Z,0
2018-09-18T22:45:20.771Z,0
2018-09-18T22:50:20.310Z,0
2018-09-18T22:55:20.439Z,0
2018-09-18T23:00:20.374Z,0
2018-09-18T23:05:22.872Z,0
2018-09-18T23:10:22.486Z,0
2018-09-18T23:15:22.523Z,0
2018-09-18T23:20:21.132Z,0
2018-09-18T23:25:22.027Z,0
2018-09-18T23:30:20.899Z,0
2018-09-18T23:35:24.746Z,0
2018-09-18T23:40:23.214Z,0
2018-09-18T23:45:20.601Z,0
2018-09-18T23:50:20.504Z,0
2018-09-18T23:55:20.552Z,0
